METAR Data
IDs: Format: Raw Decoded Include TAF

Data at: 0322 UTC 18 Jun 2019

PAIW 180316Z AUTO 36013KT 9SM BKN006 08/06 A2987 RMK AO2
PAIW 180256Z AUTO 36013KT 10SM FEW008 09/07 A2987 RMK AO2 SLP117 T00890067 56009
PAIW 180210Z AUTO 36014KT 10SM SCT008 09/07 A2987 RMK AO2
PAIW 180156Z AUTO 01014KT 10SM BKN008 09/07 A2988 RMK AO2 SLP119 T00940072
PAIW 180056Z AUTO 36011KT 10SM BKN008 08/07 A2989 RMK AO2 SLP123 T00830067
PAIW 180048Z AUTO 36012KT 10SM BKN008 08/06 A2990 RMK AO2
PAIW 180007Z AUTO 36010KT 10SM FEW008 09/07 A2990 RMK AO2
PAIW 172356Z AUTO 01010KT 10SM CLR 09/07 A2990 RMK AO2 SLP126 T00940067 10100 20089 56007
PAIW 172256Z AUTO 03010KT 10SM CLR 09/07 A2990 RMK AO2 SLP128 T00940067
PAIW 172156Z AUTO 02012KT 10SM CLR 10/07 A2991 RMK AO2 SLP129 T01000072
PAIW 172056Z AUTO 01011KT 10SM FEW010 09/07 A2992 RMK AO2 SLP134 T00940067 57002
PAIW 172026Z AUTO 01010KT 10SM FEW009 09/07 A2992 RMK AO2
PAIW 171956Z AUTO 01009KT 10SM CLR 10/07 A2992 RMK AO2 SLP135 T01000072
PAIW 171856Z AUTO 01010KT 10SM CLR 09/07 A2992 RMK AO2 SLP135 T00940067
PAIW 171756Z AUTO 03009KT 10SM CLR 10/07 A2993 RMK AO2 SLP136 T01000067 10100 20061 55004
PAIW 171656Z AUTO 03010KT 10SM CLR 09/07 A2992 RMK AO2 SLP135 T00940067
PAIW 171556Z AUTO 03007KT 10SM CLR 08/06 A2993 RMK AO2 SLP137 T00830061
PAIW 171456Z AUTO 02005KT 10SM CLR 08/06 A2994 RMK AO2 SLP140 T00780056 56005
PAIW 171356Z AUTO 05004KT 10SM CLR 07/04 A2994 RMK AO2 SLP140 T00670044
PAIW 171256Z AUTO 06005KT 10SM CLR 07/04 A2995 RMK AO2 SLP142 T00720039
PAIW 171156Z AUTO 05003KT 10SM CLR 07/04 A2995 RMK AO2 SLP145 T00670039 10100 20067 55000
PAIW 171056Z AUTO 05006KT 10SM CLR 07/04 A2995 RMK AO2 SLP144 T00720044
PAIW 170956Z AUTO 05007KT 10SM CLR 08/04 A2996 RMK AO2 SLP145 T00780044
PAIW 170856Z AUTO 05009KT 10SM CLR 08/05 A2996 RMK AO2 SLP145 T00780050 401280072 50000
PAIW 170756Z AUTO 05009KT 10SM CLR 09/06 A2996 RMK AO2 SLP146 T00890056
PAIW 170656Z AUTO 05010KT 10SM CLR 09/05 A2996 RMK AO2 SLP146 T00890050
PAIW 170556Z AUTO 05011KT 10SM CLR 09/05 A2996 RMK AO2 SLP145 T00890050 10111 20089 56003
PAIW 170456Z AUTO 05012KT 10SM CLR 11/06 A2996 RMK AO2 SLP146 T01060056
PAIW 170356Z AUTO 02011KT 10SM CLR 11/07 A2996 RMK AO2 SLP147 T01060067
PAIW 170256Z AUTO 02011KT 10SM CLR 10/07 A2997 RMK AO2 SLP149 T01000067 55002
PAIW 170156Z AUTO 02010KT 10SM CLR 11/07 A2996 RMK AO2 SLP148 T01110072
PAIW 170056Z AUTO 04011KT 10SM CLR 11/07 A2997 RMK AO2 SLP150 T01060072
PAIW 162356Z AUTO 05009KT 10SM CLR 10/07 A2997 RMK AO2 SLP151 T01000072 10106 20083 57000
PAIW 162256Z AUTO 05008KT 10SM CLR 10/07 A2997 RMK AO2 SLP151 T01000067
PAIW 162156Z AUTO 05009KT 10SM CLR 10/07 A2997 RMK AO2 SLP151 T01000067
PAIW 162056Z AUTO 06010KT 10SM CLR 09/06 A2997 RMK AO2 SLP151 T00940061 51004
PAIW 161956Z AUTO 05009KT 10SM CLR 09/06 A2997 RMK AO2 SLP151 T00940061
PAIW 161856Z AUTO 05009KT 9SM CLR 09/06 A2997 RMK AO2 SLP150 T00890061
PAIW 161756Z AUTO 06011KT 9SM CLR 08/06 A2996 RMK AO2 SLP147 T00830061 10106 20072 51006
PAIW 161656Z AUTO 06009KT 9SM CLR 08/06 A2996 RMK AO2 SLP147 T00780061
PAIW 161556Z AUTO 05008KT 8SM CLR 08/06 A2995 RMK AO2 SLP144 T00780061